Flight Track Log - Related Links

Times and Time Zones

All times are in EDT time to prevent confusion due to time zone crossing. See the SWA561 flight status page for this flight to view local times or setup timezone preferences in your user account.

Time Position Orientation Groundspeed Altitude Reporting Facility
EDT Latitude Longitude Course Direction KTS MPH feet Rate Location/Type
Fri 08:32:54 PM 37.7194 -122.2425 140° Southeast 149 171 1,000  Level Oakland Center
Fri 08:33:56 PM 37.7422 -122.2997 297° West 194 223 3,000 2,000 Climbing Oakland Center
Fri 08:34:57 PM 37.7250 -122.3622 251° West 217 250 5,100 2,878 Climbing Oakland Center
Fri 08:35:59 PM 37.6458 -122.3828 192° South 264 304 8,900 3,024 Climbing Oakland Center
Fri 08:37:00 PM 37.5403 -122.4122 192° South 312 359 11,300 2,951 Climbing Oakland Center
Fri 08:38:00 PM 37.2746 -121.7438 140° Southeast  Level Estimated
Fri 08:38:01 PM 37.4403 -122.3883 169° South 374 430 14,900  Level Oakland Center
Fri 08:39:03 PM 37.3564 -122.2972 139° Southeast 398 458 18,200 2,976 Climbing Oakland Center
Fri 08:40:04 PM 37.2792 -122.1864 131° Southeast 416 479 21,000 2,634 Climbing Oakland Center
Fri 08:41:06 PM 37.1978 -122.0750 133° Southeast 430 495 23,600 2,829 Climbing Oakland Center
Fri 08:42:07 PM 37.1150 -121.9594 132° Southeast 443 510 26,800 2,656 Climbing Oakland Center
Fri 08:43:08 PM 37.0333 -121.8444 132° Southeast 444 511 29,000 1,073 Climbing Oakland Center
Fri 08:44:10 PM 36.9511 -121.7317 132° Southeast 441 507 29,000  Level Oakland Center
Fri 08:45:11 PM 36.8700 -121.6183 132° Southeast 437 503 29,000  Level Oakland Center
Fri 08:46:13 PM 36.7797 -121.4972 133° Southeast 435 501 29,000  Level Oakland Center
Fri 08:47:14 PM 36.6992 -121.3842 132° Southeast 435 501 29,000  Level Oakland Center
Fri 08:48:15 PM 36.6178 -121.2742 133° Southeast 433 498 29,000  Level Oakland Center
Fri 08:49:17 PM 36.5356 -121.1639 133° Southeast 435 501 29,000  Level Oakland Center
Fri 08:50:18 PM 36.4381 -121.0317 132° Southeast 433 498 29,000  Level Oakland Center
Fri 08:51:20 PM 36.3564 -120.9211 133° Southeast 433 498 29,000  Level Oakland Center
Fri 08:52:21 PM 36.2742 -120.8094 132° Southeast 436 502 29,000  Level Oakland Center
Fri 08:53:22 PM 36.1919 -120.7000 133° Southeast 434 499 29,000  Level Oakland Center
Fri 08:54:24 PM 36.1094 -120.5889 133° Southeast 435 501 29,000  Level Oakland Center
Fri 08:55:25 PM 36.0264 -120.4767 132° Southeast 446 513 29,000  Level Oakland Center
Fri 08:56:26 PM 35.9439 -120.3686 133° Southeast 433 498 29,000  Level Oakland Center
Fri 08:57:27 PM 35.8606 -120.2592 133° Southeast 434 499 29,000  Level Oakland Center
Fri 08:58:29 PM 35.7772 -120.1503 133° Southeast 434 499 29,000  Level Oakland Center
Fri 08:59:30 PM 35.6944 -120.0411 133° Southeast 433 498 29,000  Level Oakland Center
Fri 09:00:31 PM 35.6053 -119.9403 137° Southeast 429 494 29,000  Level Oakland Center
Fri 09:01:32 PM 35.5047 -119.8564 146° Southeast 431 496 29,000  Level Oakland Center
Fri 09:02:34 PM 35.3861 -119.7533 145° Southeast 431 496 29,000  Level Oakland Center
Fri 09:03:14 PM 35.3278 -119.7036 145° Southeast 429 494 29,000  Level Los Angeles Center
Fri 09:04:16 PM 35.2308 -119.6192 145° Southeast 427 491 29,000  Level Los Angeles Center
Fri 09:05:18 PM 35.1331 -119.5361 145° Southeast 427 491 29,000  Level Los Angeles Center
Fri 09:06:20 PM 35.0350 -119.4528 145° Southeast 428 493 29,000  Level Los Angeles Center
Fri 09:07:22 PM 34.9375 -119.3697 145° Southeast 427 491 29,000 -871 Level Los Angeles Center
Fri 09:08:24 PM 34.8231 -119.2736 145° Southeast 417 480 27,200 -2,081 Descending Los Angeles Center
Fri 09:09:26 PM 34.7275 -119.1919 145° Southeast 418 481 24,700 -2,448 Descending Los Angeles Center
Fri 09:10:29 PM 34.6219 -119.1025 145° Southeast 430 495 22,100 -2,304 Descending Los Angeles Center
Fri 09:11:31 PM 34.5233 -119.0211 146° Southeast 406 467 19,900 -2,081 Descending Los Angeles Center
Fri 09:12:33 PM 34.4319 -118.9464 146° Southeast 393 452 17,800 -2,032 Descending Los Angeles Center
Fri 09:13:35 PM 34.3414 -118.8764 147° Southeast 383 441 15,700 -2,032 Descending Los Angeles Center
Fri 09:14:37 PM 34.2411 -118.8386 163° South 377 434 13,600 -2,081 Descending Los Angeles Center
Fri 09:15:39 PM 34.1428 -118.8028 163° South 369 425 11,400 -1,645 Descending Los Angeles Center
Fri 09:16:41 PM 34.0467 -118.7514 156° South 346 398 10,200 -726 Descending Los Angeles Center
Fri 09:17:43 PM 34.0283 -118.6464 102° East 299 344 9,900 -774 Descending Los Angeles Center
Fri 09:18:45 PM 34.0186 -118.5483 97° East 295 339 8,600 -1,210 Descending Los Angeles Center
Fri 09:19:47 PM 34.0106 -118.4553 96° East 281 323 7,400 -1,355 Descending Los Angeles Center
Fri 09:20:49 PM 34.0172 -118.3681 85° East 266 306 5,800 -1,548 Descending Los Angeles Center
Fri 09:21:51 PM 34.0250 -118.2767 84° East 270 311 4,200 -1,210 Descending Los Angeles Center
Fri 09:22:53 PM 34.0081 -118.1994 105° East 266 306 3,300 -823 Descending Los Angeles Center
Fri 09:23:55 PM 33.9683 -118.2283 211° Southwest 228 262 2,500 -677 Descending Los Angeles Center
Fri 09:24:57 PM 33.9628 -118.2992 265° West 193 222 1,900 -677 Descending Los Angeles Center
Fri 09:25:59 PM 33.9583 -118.3436 263° West 159 183 1,100 -677 Descending Los Angeles Center
Fri 09:27:01 PM 33.9553 -118.3836 265° West 133 153 500 -435 Descending Los Angeles Center
Fri 09:28:03 PM 33.9494 -118.4214 259° West 129 148 200 -290 Descending Los Angeles Center

Login

Don't have an account? Register now (free) for customized features, flight alerts, and more!